In Rescue
 
Open Full Screen Window  High Contrast Mode
June 20, 2021 4:23 PM GMT
Weather Information
Wind Direction
  ---
Wind Speed
  00 kt (0 mph)
Wind Gust
  00 kt (0 mph)
Altimeter
29.85 in
Visibility
10 SM
Temperature
27° C
81° F
Dewpoint
19° C
66° F
Humidity
62%
Sky Condition
Overcast @ 3,600 ft
Broken @ 3,100 ft
VFR

METAR K22N 201623Z AUTO 00000KT 10SM BKN031 OVC036 27/19 A2985 RMK AO2

FAA Disclaimer: The data displayed is for advisory purposes only and is not to be used for flight planning or operations.